Hlavní strana
METAR-TAF:

METAR-TAF

Letiště :

Växjö, Švédsko

zeměpisná šířka: 56-51N, zeměpisná délka: 014-50E, výška: 199 m

Aktuální stav počasí

Zpráva byla vytvořena před 30 minutami, v 08:20 UTC
Severovýchodní vítr 5 kt, proměnlivý mezi severním a východním
Teplota 17°C
Vlhkost vzduchu 55%
Tlak 1013 hPa
Viditelnost 10 km a více
Žádná oblačnost pod 1500 m, nevyskytují se cumulonimby.

METAR: ESMX 260820Z 04005KT 010V080 CAVOK 17/08 Q1013

Čas: 10:50 (08:50 UTC)

Předpověď počasí

Zpráva byla vytvořena před 20 minutami, v 08:30 UTC
Předpověď platná od 26 v 09 UTC do 26 v 18 UTC
Severoseverovýchodní vítr 6 kt
Viditelnost 10 km a více
Žádná oblačnost pod 1500 m, nevyskytují se cumulonimby.
Pravděpodobnost 40%
od 26 v 16 UTC do 26 v 18 UTC
Polojasno ve výšce 4000 ft, Cumulonimbus.

TAF: ESMX 260830Z 2609/2618 03006KT CAVOK PROB40 2616/2618 SCT040CB

Stav a předpovědi počasí z více než 4 000 letišť (zprávy METAR a TAF).

Červené a žluté tečky na mapě představují dostupné meteorologické stanice.

Když kurzor umístíte na tečku, zobrazí se název stanice.

Pak kliknutím zobrazíte stav a předpověď počasí.

Chcete-li změnit mapu, kliknutím na zelené tlačítko se znaménkem +mapu přiblížíte, kliknutím na zelené tlačítko se znaménkem – mapu oddálíte a kliknutím na zelené šipky přejdete na sousední mapy.


METAR-TAF: